• Join FlightAware (Why Join?)
  • Login
  • US Flag 
05:36PM EDT


 

Airport Tracker/Info


-or-


 

Live Flight TrackerFlight Track Log ✈ SWA1719 ✈ 24-Apr-2013 ✈ KABQ - KHOU

Flight Track Log - Related Links

Times and Time Zones

All times are in EDT time to prevent confusion due to time zone crossing. See the SWA1719 flight status page for this flight to view local times or setup timezone preferences in your user account.

Time Position Orientation Groundspeed Altitude Reporting Facility
EDT Latitude Longitude Course Direction KTS MPH feet Rate Location/Type
11:30AM 35.0436 -106.5792 131° Southeast 162 186 6,200  Level Albuquerque Center
11:31AM 35.0036 -106.5222 131° Southeast 229 264 8,500 1,740 Climbing Albuquerque Center
11:32AM 34.9589 -106.5122 170° South 240 276 9,600 1,980 Climbing Albuquerque Center
11:33AM 34.8742 -106.5169 183° South 278 320 12,100 2,700 Climbing Albuquerque Center
11:34AM 34.7967 -106.4539 146° Southeast 361 415 15,300 3,120 Climbing Albuquerque Center
11:35AM 34.7397 -106.3136 116° Southeast 386 444 18,600 2,880 Climbing Albuquerque Center
11:36AM 34.6908 -106.1889 115° Southeast 404 465 21,300 2,460 Climbing Albuquerque Center
11:37AM 34.6358 -106.0542 116° Southeast 431 496 23,800 2,280 Climbing Albuquerque Center
11:38AM 34.5781 -105.9153 117° Southeast 449 517 26,100 2,160 Climbing Albuquerque Center
11:39AM 34.5125 -105.7781 120° Southeast 460 529 28,300 2,040 Climbing Albuquerque Center
11:40AM 34.4328 -105.6142 120° Southeast 474 545 30,400 1,260 Climbing Albuquerque Center
11:41AM 34.3611 -105.4667 120° Southeast 493 567 31,000 480 Climbing Albuquerque Center
11:42AM 34.2900 -105.3186 120° Southeast 502 578 31,500 1,200 Climbing Albuquerque Center
11:43AM 34.2186 -105.1733 121° Southeast 501 577 33,500 1,620 Climbing Albuquerque Center
11:44AM 34.1469 -105.0286 121° Southeast 499 574 34,900 1,260 Climbing Albuquerque Center
11:45AM 34.0722 -104.8744 120° Southeast 515 593 36,200 1,320 Climbing Albuquerque Center
11:46AM 33.9886 -104.7100 121° Southeast 521 600 37,700 1,320 Climbing Albuquerque Center
11:47AM 33.9092 -104.5519 121° Southeast 515 593 39,000 600 Climbing Albuquerque Center
11:48AM 33.8364 -104.4058 121° Southeast 510 587 39,000  Level Albuquerque Center
11:49AM 33.7569 -104.2489 121° Southeast 510 587 39,000  Level Albuquerque Center
11:50AM 33.6856 -104.1042 121° Southeast 505 581 39,000  Level Albuquerque Center
11:51AM 33.6125 -103.9603 121° Southeast 503 579 39,000  Level Albuquerque Center
11:52AM 33.5336 -103.8053 121° Southeast 504 580 39,000  Level Albuquerque Center
11:53AM 33.4658 -103.6697 121° Southeast 503 579 39,000  Level Albuquerque Center
11:54AM 33.3931 -103.5258 121° Southeast 506 582 39,000  Level Albuquerque Center
11:56AM 33.3197 -103.3831 122° Southeast 505 581 39,000  Level Albuquerque Center
11:57AM 33.2472 -103.2417 121° Southeast 501 577 39,000  Level Albuquerque Center
11:58AM 33.1581 -103.0714 122° Southeast 502 578 39,000  Level Albuquerque Center
11:58AM 33.1258 -103.0114 123° Southeast 502 578 39,000  Level Fort Worth Center
11:59AM 33.0528 -102.8706 122° Southeast 502 578 39,000  Level Fort Worth Center
12:00PM 32.9792 -102.7325 122° Southeast 502 578 39,000  Level Fort Worth Center
12:01PM 32.9058 -102.5919 122° Southeast 497 572 39,000  Level Fort Worth Center
12:02PM 32.8325 -102.4492 121° Southeast 502 578 39,000  Level Fort Worth Center
12:03PM 32.7586 -102.3092 122° Southeast 502 578 39,000  Level Fort Worth Center
12:04PM 32.6847 -102.1694 122° Southeast 502 578 39,000  Level Fort Worth Center
12:05PM 32.6086 -102.0297 123° Southeast 497 572 39,000  Level Fort Worth Center
12:06PM 32.5419 -101.9106 124° Southeast 497 572 39,000  Level Fort Worth Center
12:07PM 32.4675 -101.7739 123° Southeast 497 572 39,000  Level Fort Worth Center
12:08PM 32.3928 -101.6350 122° Southeast 497 572 39,000  Level Fort Worth Center
12:09PM 32.3181 -101.4989 123° Southeast 497 572 39,000  Level Fort Worth Center
12:11PM 32.1800 -101.2425 122° Southeast 497 572 39,000  Level Fort Worth Center
12:12PM 32.1011 -101.0894 121° Southeast 497 572 39,000  Level Fort Worth Center
12:13PM 32.0153 -100.9464 125° Southeast 492 566 39,000  Level Fort Worth Center
12:14PM 31.9397 -100.8111 123° Southeast 487 560 39,000  Level Fort Worth Center
12:15PM 31.8764 -100.6867 121° Southeast 487 560 39,000  Level Fort Worth Center
12:16PM 31.7922 -100.5394 124° Southeast 493 567 39,000  Level Fort Worth Center
12:18PM 31.6625 -100.3047 123° Southeast 494 568 39,000  Level Houston Center
12:19PM 31.5872 -100.1700 123° Southeast 494 568 39,000  Level Houston Center
12:20PM 31.5106 -100.0342 123° Southeast 498 573 39,000  Level Houston Center
12:21PM 31.4344 -99.9003 124° Southeast 496 571 39,000  Level Houston Center
12:22PM 31.3586 -99.7647 123° Southeast 496 571 39,000  Level Houston Center
12:23PM 31.2792 -99.5956 119° Southeast 500 575 39,000  Level Houston Center
12:24PM 31.2414 -99.4331 105° East 515 593 39,000  Level Houston Center
12:25PM 31.2058 -99.2714 104° East 513 590 39,000  Level Houston Center
12:26PM 31.1692 -99.1164 105° East 513 590 39,000  Level Houston Center
12:27PM 31.1253 -98.9292 105° East 511 588 39,000  Level Houston Center
12:28PM 31.0883 -98.7678 105° East 509 586 39,000  Level Houston Center
12:29PM 31.0514 -98.6056 105° East 512 589 39,000  Level Houston Center
12:30PM 31.0133 -98.4442 105° East 512 589 39,000  Level Houston Center
12:31PM 30.9753 -98.2819 105° East 514 592 39,000  Level Houston Center
12:32PM 30.9372 -98.1197 105° East 515 593 39,000  Level Houston Center
12:33PM 30.8992 -97.9578 105° East 515 593 39,000 -540 Level Houston Center
12:34PM 30.8539 -97.7683 106° East 517 595 38,000 -1,800 Descending Houston Center
12:35PM 30.8142 -97.6078 106° East 516 594 35,300 -2,760 Descending Houston Center
12:36PM 30.7747 -97.4481 106° East 515 593 32,400 -2,100 Descending Houston Center
12:37PM 30.7361 -97.2889 106° East 515 593 31,000 -1,500 Descending Houston Center
12:38PM 30.6894 -97.1378 110° East 501 577 29,400 -2,460 Descending Houston Center
12:40PM 30.6064 -96.9800 121° Southeast 490 564 26,000 -3,000 Descending Houston Center
12:41PM 30.5381 -96.8472 121° Southeast 477 549 23,200 -2,460 Descending Houston Center
12:42PM 30.4733 -96.7189 120° Southeast 460 529 21,000 -2,220 Descending Houston Center
12:43PM 30.4094 -96.5986 122° Southeast 439 505 18,700 -2,340 Descending Houston Center
12:44PM 30.3497 -96.4853 121° Southeast 415 478 16,200 -2,640 Descending Houston Center
12:44PM 30.3181 -96.4203 119° Southeast 404 465 14,600 -2,520 Descending Houston Center
12:45PM 30.2925 -96.3731 122° Southeast 404 465 13,600 -2,220 Descending Houston Center
12:45PM 30.2483 -96.2881 121° Southeast 389 448 11,900 -1,860 Descending Houston Center
12:46PM 30.2353 -96.2661 125° Southeast 393 452 11,700 -1,020 Descending Houston Center
12:46PM 30.1906 -96.2003 128° Southeast 335 386 11,000 -720 Descending Houston Center
12:47PM 30.1586 -96.1814 153° Southeast 330 380 11,000 60 Level Houston Center
12:47PM 30.1156 -96.1581 155° Southeast 307 353 11,100 -120 Climbing Houston Center
12:48PM 30.0947 -96.1453 152° Southeast 305 351 10,900  Descending Houston Center
12:48PM 30.0431 -96.0939 139° Southeast 321 369 11,100  Climbing Houston Center
12:49PM 30.0147 -96.0617 135° Southeast 322 371 10,900  Descending Houston Center
12:49PM 29.9689 -96.0131 137° Southeast 327 376 11,100  Climbing Houston Center
12:50PM 29.9483 -95.9906 137° Southeast 325 374 10,900 -540 Descending Houston Center
12:51PM 29.9061 -95.9431 136° Southeast 324 373 10,600 -720 Descending Houston Center
12:51PM 29.8822 -95.9186 138° Southeast 325 374 10,200 -540 Descending Houston Center
12:52PM 29.8347 -95.8694 138° Southeast 320 368 10,100 -300 Descending Houston Center
12:52PM 29.8172 -95.8489 134° Southeast 321 369 9,900 -420 Descending Houston Center
12:53PM 29.7742 -95.8017 136° Southeast 291 335 9,700 -720 Descending Houston Center
12:53PM 29.7550 -95.7828 139° Southeast 308 354 9,200 -1,140 Descending Houston Center
12:54PM 29.7139 -95.7389 137° Southeast 290 334 8,600 -1,020 Descending Houston Center
12:54PM 29.6983 -95.7222 137° Southeast 285 328 8,200 -1,380 Descending Houston Center
12:55PM 29.6467 -95.6675 137° Southeast 288 331 7,100 -1,860 Descending Houston Center
12:55PM 29.6272 -95.6428 132° Southeast 292 336 6,300 -1,500 Descending Houston Center
12:56PM 29.6142 -95.5850 105° East 276 318 5,600 -1,380 Descending Houston Center
12:56PM 29.6047 -95.5575 112° Southeast 282 325 4,900 -1,500 Descending Houston Center
12:57PM 29.5878 -95.5014 109° East 273 314 4,100 -1,380 Descending Houston Center
12:57PM 29.5772 -95.4747 114° Southeast 277 319 3,500 -1,380 Descending Houston Center
12:58PM 29.5633 -95.4203 106° East 242 278 2,700 -300 Descending Houston Center
12:58PM 29.5519 -95.3956 118° Southeast 275 316 3,200 -660 Climbing Houston Center
12:59PM 29.5608 -95.3678 70° East 184 212 2,100 -1,140 Descending Houston Center
01:00PM 29.5953 -95.3325 42° Northeast 137 158 1,300 -720 Descending Houston Center
01:01PM 29.6183 -95.3081 43° Northeast 116 133 700 -660 Descending Houston Center
01:03PM 29.6333 -95.2667 51° Northeast  Level FlightAware Approximate
01:10PM 29.6454 -95.2789 51° Northeast  Level Estimated